sensor_id;sensor_type;location;lat;lon;timestamp;temperature;humidity
75357;HTU21D;63946;51.986;5.930;2023-05-10T04:44:14;14.43;77.14
75357;HTU21D;63946;51.986;5.930;2023-05-10T04:46:43;14.42;77.17
75357;HTU21D;63946;51.986;5.930;2023-05-10T04:49:12;14.41;77.18
75357;HTU21D;63946;51.986;5.930;2023-05-10T04:51:40;14.39;77.24
75357;HTU21D;63946;51.986;5.930;2023-05-10T04:54:09;14.40;77.28
75357;HTU21D;63946;51.986;5.930;2023-05-10T04:56:38;14.42;77.34
75357;HTU21D;63946;51.986;5.930;2023-05-10T04:59:07;14.42;77.26
75357;HTU21D;63946;51.986;5.930;2023-05-10T05:01:36;14.40;77.34
75357;HTU21D;63946;51.986;5.930;2023-05-10T05:04:04;14.43;77.37
75357;HTU21D;63946;51.986;5.930;2023-05-10T05:06:33;14.48;77.34
75357;HTU21D;63946;51.986;5.930;2023-05-10T05:09:02;14.51;77.29
75357;HTU21D;63946;51.986;5.930;2023-05-10T05:11:31;14.50;77.21
75357;HTU21D;63946;51.986;5.930;2023-05-10T05:13:59;14.50;77.24
75357;HTU21D;63946;51.986;5.930;2023-05-10T05:16:30;14.51;77.22
75357;HTU21D;63946;51.986;5.930;2023-05-10T05:18:59;14.52;77.24
75357;HTU21D;63946;51.986;5.930;2023-05-10T05:21:28;14.56;77.19
75357;HTU21D;63946;51.986;5.930;2023-05-10T05:23:58;14.57;77.18
75357;HTU21D;63946;51.986;5.930;2023-05-10T05:26:27;14.60;77.18
75357;HTU21D;63946;51.986;5.930;2023-05-10T05:28:55;14.60;77.20
75357;HTU21D;63946;51.986;5.930;2023-05-10T05:31:24;14.62;77.06
75357;HTU21D;63946;51.986;5.930;2023-05-10T05:33:53;14.62;76.97
75357;HTU21D;63946;51.986;5.930;2023-05-10T05:36:22;14.60;76.89
75357;HTU21D;63946;51.986;5.930;2023-05-10T05:38:50;14.60;76.94
75357;HTU21D;63946;51.986;5.930;2023-05-10T05:41:19;14.65;76.89
75357;HTU21D;63946;51.986;5.930;2023-05-10T05:43:49;14.71;76.76
75357;HTU21D;63946;51.986;5.930;2023-05-10T05:46:18;14.74;76.66
75357;HTU21D;63946;51.986;5.930;2023-05-10T05:48:47;14.78;76.63
75357;HTU21D;63946;51.986;5.930;2023-05-10T05:51:15;14.81;76.56
75357;HTU21D;63946;51.986;5.930;2023-05-10T05:53:44;14.89;76.48
75357;HTU21D;63946;51.986;5.930;2023-05-10T05:56:13;14.97;76.33
75357;HTU21D;63946;51.986;5.930;2023-05-10T05:58:43;15.03;76.24
75357;HTU21D;63946;51.986;5.930;2023-05-10T06:01:13;15.06;76.18
75357;HTU21D;63946;51.986;5.930;2023-05-10T06:03:42;15.08;76.24
75357;HTU21D;63946;51.986;5.930;2023-05-10T06:06:10;15.10;76.26
75357;HTU21D;63946;51.986;5.930;2023-05-10T06:08:39;15.11;76.17
75357;HTU21D;63946;51.986;5.930;2023-05-10T06:11:08;15.11;76.15
75357;HTU21D;63946;51.986;5.930;2023-05-10T06:13:37;15.09;76.14
75357;HTU21D;63946;51.986;5.930;2023-05-10T06:16:06;15.07;76.24
75357;HTU21D;63946;51.986;5.930;2023-05-10T06:18:34;15.07;76.28
75357;HTU21D;63946;51.986;5.930;2023-05-10T06:21:03;15.06;76.22
75357;HTU21D;63946;51.986;5.930;2023-05-10T06:23:32;15.01;76.24
75357;HTU21D;63946;51.986;5.930;2023-05-10T06:26:01;15.00;76.27
75357;HTU21D;63946;51.986;5.930;2023-05-10T06:28:30;14.99;76.29
75357;HTU21D;63946;51.986;5.930;2023-05-10T06:30:59;14.98;76.31
75357;HTU21D;63946;51.986;5.930;2023-05-10T06:33:28;14.97;76.27
75357;HTU21D;63946;51.986;5.930;2023-05-10T06:35:57;14.96;76.27
75357;HTU21D;63946;51.986;5.930;2023-05-10T06:38:26;14.93;76.33
75357;HTU21D;63946;51.986;5.930;2023-05-10T06:40:54;14.91;76.43
75357;HTU21D;63946;51.986;5.930;2023-05-10T06:43:23;14.91;76.48
75357;HTU21D;63946;51.986;5.930;2023-05-10T06:45:54;14.91;76.41
75357;HTU21D;63946;51.986;5.930;2023-05-10T06:48:23;14.88;76.48
75357;HTU21D;63946;51.986;5.930;2023-05-10T06:50:54;14.88;76.45
75357;HTU21D;63946;51.986;5.930;2023-05-10T06:53:22;14.82;76.53
75357;HTU21D;63946;51.986;5.930;2023-05-10T06:55:51;14.79;76.61
75357;HTU21D;63946;51.986;5.930;2023-05-10T06:58:20;14.80;76.65
75357;HTU21D;63946;51.986;5.930;2023-05-10T07:00:48;14.81;76.59
75357;HTU21D;63946;51.986;5.930;2023-05-10T07:03:17;14.86;76.45
75357;HTU21D;63946;51.986;5.930;2023-05-10T07:05:46;14.88;76.33
75357;HTU21D;63946;51.986;5.930;2023-05-10T07:08:15;14.93;76.35
75357;HTU21D;63946;51.986;5.930;2023-05-10T07:10:43;14.97;76.24
75357;HTU21D;63946;51.986;5.930;2023-05-10T07:13:12;14.97;76.19
75357;HTU21D;63946;51.986;5.930;2023-05-10T07:15:41;15.00;76.09
75357;HTU21D;63946;51.986;5.930;2023-05-10T07:18:10;15.02;76.09
75357;HTU21D;63946;51.986;5.930;2023-05-10T07:20:42;15.04;76.03
75357;HTU21D;63946;51.986;5.930;2023-05-10T07:23:11;15.06;75.99
75357;HTU21D;63946;51.986;5.930;2023-05-10T07:25:41;15.13;75.94
75357;HTU21D;63946;51.986;5.930;2023-05-10T07:28:10;15.13;75.93
75357;HTU21D;63946;51.986;5.930;2023-05-10T07:30:39;15.14;75.89
75357;HTU21D;63946;51.986;5.930;2023-05-10T07:33:09;15.16;75.85
75357;HTU21D;63946;51.986;5.930;2023-05-10T07:35:38;15.24;75.75
75357;HTU21D;63946;51.986;5.930;2023-05-10T07:38:07;15.30;75.60
75357;HTU21D;63946;51.986;5.930;2023-05-10T07:40:36;15.33;75.38
75357;HTU21D;63946;51.986;5.930;2023-05-10T07:43:05;15.37;75.38
75357;HTU21D;63946;51.986;5.930;2023-05-10T07:45:34;15.42;75.34
75357;HTU21D;63946;51.986;5.930;2023-05-10T07:48:03;15.48;75.28
75357;HTU21D;63946;51.986;5.930;2023-05-10T07:50:32;15.55;75.19
75357;HTU21D;63946;51.986;5.930;2023-05-10T07:53:00;15.60;75.12
75357;HTU21D;63946;51.986;5.930;2023-05-10T07:55:29;15.65;75.02
75357;HTU21D;63946;51.986;5.930;2023-05-10T07:57:58;15.67;75.00
75357;HTU21D;63946;51.986;5.930;2023-05-10T08:00:29;15.69;74.90
75357;HTU21D;63946;51.986;5.930;2023-05-10T08:02:58;15.70;74.88
75357;HTU21D;63946;51.986;5.930;2023-05-10T08:05:26;15.70;74.87
75357;HTU21D;63946;51.986;5.930;2023-05-10T08:07:55;15.73;74.89
75357;HTU21D;63946;51.986;5.930;2023-05-10T08:10:25;15.80;74.74
75357;HTU21D;63946;51.986;5.930;2023-05-10T08:12:54;15.90;74.67
75357;HTU21D;63946;51.986;5.930;2023-05-10T08:15:24;16.05;74.43
75357;HTU21D;63946;51.986;5.930;2023-05-10T08:17:53;16.11;74.20
75357;HTU21D;63946;51.986;5.930;2023-05-10T08:20:22;16.13;74.09
75357;HTU21D;63946;51.986;5.930;2023-05-10T08:22:50;16.17;74.04
75357;HTU21D;63946;51.986;5.930;2023-05-10T08:25:19;16.22;73.93
75357;HTU21D;63946;51.986;5.930;2023-05-10T08:27:48;16.29;73.77
75357;HTU21D;63946;51.986;5.930;2023-05-10T08:30:17;16.39;73.37
75357;HTU21D;63946;51.986;5.930;2023-05-10T08:32:45;16.41;73.15
75357;HTU21D;63946;51.986;5.930;2023-05-10T08:35:15;16.36;73.04
75357;HTU21D;63946;51.986;5.930;2023-05-10T08:37:44;16.26;73.18
75357;HTU21D;63946;51.986;5.930;2023-05-10T08:40:14;16.18;73.31
75357;HTU21D;63946;51.986;5.930;2023-05-10T08:42:51;16.15;73.37
75357;HTU21D;63946;51.986;5.930;2023-05-10T08:45:24;16.14;73.27
75357;HTU21D;63946;51.986;5.930;2023-05-10T08:47:56;16.03;73.35
75357;HTU21D;63946;51.986;5.930;2023-05-10T08:50:26;15.99;73.49
75357;HTU21D;63946;51.986;5.930;2023-05-10T08:52:57;15.98;73.44
75357;HTU21D;63946;51.986;5.930;2023-05-10T08:55:27;15.98;73.41
75357;HTU21D;63946;51.986;5.930;2023-05-10T08:57:56;16.02;73.19
75357;HTU21D;63946;51.986;5.930;2023-05-10T09:00:27;16.06;72.77
75357;HTU21D;63946;51.986;5.930;2023-05-10T09:03:00;16.15;72.56
75357;HTU21D;63946;51.986;5.930;2023-05-10T09:05:30;16.26;72.35
75357;HTU21D;63946;51.986;5.930;2023-05-10T09:07:59;16.34;72.01
75357;HTU21D;63946;51.986;5.930;2023-05-10T09:10:29;16.39;71.71
75357;HTU21D;63946;51.986;5.930;2023-05-10T09:12:59;16.41;71.54
75357;HTU21D;63946;51.986;5.930;2023-05-10T09:15:27;16.42;71.36
75357;HTU21D;63946;51.986;5.930;2023-05-10T09:17:57;16.47;71.20
75357;HTU21D;63946;51.986;5.930;2023-05-10T09:20:28;16.55;71.00
75357;HTU21D;63946;51.986;5.930;2023-05-10T09:22:57;16.65;70.84
75357;HTU21D;63946;51.986;5.930;2023-05-10T09:25:25;16.71;70.61
75357;HTU21D;63946;51.986;5.930;2023-05-10T09:27:54;16.80;70.30
75357;HTU21D;63946;51.986;5.930;2023-05-10T09:32:54;16.81;69.43
75357;HTU21D;63946;51.986;5.930;2023-05-10T09:35:26;16.80;69.49
75357;HTU21D;63946;51.986;5.930;2023-05-10T09:37:57;16.81;69.29
75357;HTU21D;63946;51.986;5.930;2023-05-10T09:40:27;16.79;69.17
75357;HTU21D;63946;51.986;5.930;2023-05-10T09:43:00;16.76;69.53
75357;HTU21D;63946;51.986;5.930;2023-05-10T09:45:31;16.76;69.36
75357;HTU21D;63946;51.986;5.930;2023-05-10T09:48:01;16.81;69.19
75357;HTU21D;63946;51.986;5.930;2023-05-10T09:50:30;16.85;68.89
75357;HTU21D;63946;51.986;5.930;2023-05-10T09:53:01;16.79;68.77
75357;HTU21D;63946;51.986;5.930;2023-05-10T09:55:41;16.80;68.71
75357;HTU21D;63946;51.986;5.930;2023-05-10T09:58:15;16.80;68.72
75357;HTU21D;63946;51.986;5.930;2023-05-10T10:00:45;16.87;68.57
75357;HTU21D;63946;51.986;5.930;2023-05-10T10:03:18;16.93;68.28
75357;HTU21D;63946;51.986;5.930;2023-05-10T10:05:48;16.98;68.33
75357;HTU21D;63946;51.986;5.930;2023-05-10T10:08:19;17.03;67.97
75357;HTU21D;63946;51.986;5.930;2023-05-10T10:10:48;17.09;67.68
75357;HTU21D;63946;51.986;5.930;2023-05-10T10:13:16;17.06;67.49
75357;HTU21D;63946;51.986;5.930;2023-05-10T10:15:46;17.05;67.59
75357;HTU21D;63946;51.986;5.930;2023-05-10T10:18:17;16.99;67.61
75357;HTU21D;63946;51.986;5.930;2023-05-10T10:20:53;16.94;67.54
75357;HTU21D;63946;51.986;5.930;2023-05-10T10:23:22;16.90;67.32
75357;HTU21D;63946;51.986;5.930;2023-05-10T10:25:52;16.82;67.38
75357;HTU21D;63946;51.986;5.930;2023-05-10T10:34:08;16.71;67.64
75357;HTU21D;63946;51.986;5.930;2023-05-10T10:36:42;16.72;67.69
75357;HTU21D;63946;51.986;5.930;2023-05-10T10:39:15;16.73;67.39
75357;HTU21D;63946;51.986;5.930;2023-05-10T10:41:53;16.73;67.55
75357;HTU21D;63946;51.986;5.930;2023-05-10T10:50:22;16.89;67.33
75357;HTU21D;63946;51.986;5.930;2023-05-10T10:52:36;17.00;67.21
75357;HTU21D;63946;51.986;5.930;2023-05-10T10:57:50;17.25;66.35
75357;HTU21D;63946;51.986;5.930;2023-05-10T11:00:33;17.33;66.19
75357;HTU21D;63946;51.986;5.930;2023-05-10T11:03:09;17.40;66.17
75357;HTU21D;63946;51.986;5.930;2023-05-10T11:05:49;17.36;65.72
75357;HTU21D;63946;51.986;5.930;2023-05-10T11:08:29;17.34;65.92
75357;HTU21D;63946;51.986;5.930;2023-05-10T11:13:38;17.35;66.14
75357;HTU21D;63946;51.986;5.930;2023-05-10T11:16:21;17.34;65.76
75357;HTU21D;63946;51.986;5.930;2023-05-10T11:18:57;17.35;66.04
75357;HTU21D;63946;51.986;5.930;2023-05-10T11:21:28;17.41;65.71
75357;HTU21D;63946;51.986;5.930;2023-05-10T11:23:59;17.47;65.46
75357;HTU21D;63946;51.986;5.930;2023-05-10T11:26:33;17.58;65.33
75357;HTU21D;63946;51.986;5.930;2023-05-10T11:29:03;17.64;65.15
75357;HTU21D;63946;51.986;5.930;2023-05-10T11:31:32;17.75;64.88
75357;HTU21D;63946;51.986;5.930;2023-05-10T11:34:01;17.85;64.75
75357;HTU21D;63946;51.986;5.930;2023-05-10T11:36:34;17.97;63.89
75357;HTU21D;63946;51.986;5.930;2023-05-10T11:39:04;18.05;63.63
75357;HTU21D;63946;51.986;5.930;2023-05-10T11:41:33;18.08;63.60
75357;HTU21D;63946;51.986;5.930;2023-05-10T11:44:02;18.09;63.55
75357;HTU21D;63946;51.986;5.930;2023-05-10T11:46:30;18.06;63.56
75357;HTU21D;63946;51.986;5.930;2023-05-10T11:49:00;18.08;63.41
75357;HTU21D;63946;51.986;5.930;2023-05-10T11:51:35;18.13;63.35
75357;HTU21D;63946;51.986;5.930;2023-05-10T11:54:07;18.19;63.30
75357;HTU21D;63946;51.986;5.930;2023-05-10T11:56:37;18.27;63.02
75357;HTU21D;63946;51.986;5.930;2023-05-10T11:59:07;18.32;62.93
75357;HTU21D;63946;51.986;5.930;2023-05-10T12:01:39;18.34;62.91
75357;HTU21D;63946;51.986;5.930;2023-05-10T12:04:08;18.29;62.98
75357;HTU21D;63946;51.986;5.930;2023-05-10T12:06:40;18.27;63.11
75357;HTU21D;63946;51.986;5.930;2023-05-10T12:09:09;18.30;63.18
75357;HTU21D;63946;51.986;5.930;2023-05-10T12:11:39;18.34;63.05
75357;HTU21D;63946;51.986;5.930;2023-05-10T12:14:08;18.38;62.96
75357;HTU21D;63946;51.986;5.930;2023-05-10T12:16:37;18.38;62.77
75357;HTU21D;63946;51.986;5.930;2023-05-10T12:19:09;18.39;63.05
75357;HTU21D;63946;51.986;5.930;2023-05-10T12:21:38;18.46;63.18
75357;HTU21D;63946;51.986;5.930;2023-05-10T12:24:07;18.55;62.68
75357;HTU21D;63946;51.986;5.930;2023-05-10T12:26:36;18.67;62.58
75357;HTU21D;63946;51.986;5.930;2023-05-10T12:29:16;18.81;61.82
75357;HTU21D;63946;51.986;5.930;2023-05-10T12:31:56;18.85;61.28
75357;HTU21D;63946;51.986;5.930;2023-05-10T12:34:33;18.89;61.38
75357;HTU21D;63946;51.986;5.930;2023-05-10T12:37:04;18.97;61.49
75357;HTU21D;63946;51.986;5.930;2023-05-10T12:39:42;19.03;61.34
75357;HTU21D;63946;51.986;5.930;2023-05-10T12:42:11;19.06;61.44
75357;HTU21D;63946;51.986;5.930;2023-05-10T12:44:40;19.07;61.28
75357;HTU21D;63946;51.986;5.930;2023-05-10T12:47:09;19.03;60.55
75357;HTU21D;63946;51.986;5.930;2023-05-10T12:49:39;18.86;60.59
75357;HTU21D;63946;51.986;5.930;2023-05-10T12:52:08;18.83;60.96
75357;HTU21D;63946;51.986;5.930;2023-05-10T12:54:37;18.80;60.22
75357;HTU21D;63946;51.986;5.930;2023-05-10T12:57:05;18.78;60.83
75357;HTU21D;63946;51.986;5.930;2023-05-10T12:59:34;18.84;60.90
75357;HTU21D;63946;51.986;5.930;2023-05-10T13:02:06;18.93;60.79
75357;HTU21D;63946;51.986;5.930;2023-05-10T13:04:35;19.00;60.50
75357;HTU21D;63946;51.986;5.930;2023-05-10T13:07:06;19.07;60.47
75357;HTU21D;63946;51.986;5.930;2023-05-10T13:09:35;19.12;60.32
75357;HTU21D;63946;51.986;5.930;2023-05-10T13:12:06;19.18;60.44
75357;HTU21D;63946;51.986;5.930;2023-05-10T13:14:35;19.21;60.18
75357;HTU21D;63946;51.986;5.930;2023-05-10T13:17:06;19.25;60.07
75357;HTU21D;63946;51.986;5.930;2023-05-10T13:19:41;19.27;59.62
75357;HTU21D;63946;51.986;5.930;2023-05-10T13:22:12;19.30;59.75
75357;HTU21D;63946;51.986;5.930;2023-05-10T13:24:41;19.36;59.95
75357;HTU21D;63946;51.986;5.930;2023-05-10T13:27:10;19.37;60.00
75357;HTU21D;63946;51.986;5.930;2023-05-10T13:29:41;19.39;59.85
75357;HTU21D;63946;51.986;5.930;2023-05-10T13:32:13;19.37;59.83
75357;HTU21D;63946;51.986;5.930;2023-05-10T13:34:41;19.29;60.28
75357;HTU21D;63946;51.986;5.930;2023-05-10T13:37:10;19.20;60.38
75357;HTU21D;63946;51.986;5.930;2023-05-10T13:39:39;19.11;60.18
75357;HTU21D;63946;51.986;5.930;2023-05-10T13:42:11;19.05;60.06
75357;HTU21D;63946;51.986;5.930;2023-05-10T13:44:40;18.93;60.16
75357;HTU21D;63946;51.986;5.930;2023-05-10T13:47:09;18.86;60.62
75357;HTU21D;63946;51.986;5.930;2023-05-10T13:49:38;18.81;60.71
75357;HTU21D;63946;51.986;5.930;2023-05-10T13:52:09;18.77;60.63
75357;HTU21D;63946;51.986;5.930;2023-05-10T13:54:40;18.70;60.86
75357;HTU21D;63946;51.986;5.930;2023-05-10T13:57:12;18.65;61.39
75357;HTU21D;63946;51.986;5.930;2023-05-10T13:59:42;18.54;61.84
75357;HTU21D;63946;51.986;5.930;2023-05-10T14:02:11;18.43;62.18
75357;HTU21D;63946;51.986;5.930;2023-05-10T14:04:42;18.28;62.54
75357;HTU21D;63946;51.986;5.930;2023-05-10T14:07:11;18.17;62.95
75357;HTU21D;63946;51.986;5.930;2023-05-10T14:09:40;18.06;63.43
75357;HTU21D;63946;51.986;5.930;2023-05-10T14:12:09;18.00;63.56
75357;HTU21D;63946;51.986;5.930;2023-05-10T14:14:37;17.91;63.52
75357;HTU21D;63946;51.986;5.930;2023-05-10T14:17:07;17.82;63.47
75357;HTU21D;63946;51.986;5.930;2023-05-10T14:19:41;17.79;63.51
75357;HTU21D;63946;51.986;5.930;2023-05-10T14:22:10;17.80;63.71
75357;HTU21D;63946;51.986;5.930;2023-05-10T14:24:38;17.83;64.04
75357;HTU21D;63946;51.986;5.930;2023-05-10T14:27:09;17.88;64.15
75357;HTU21D;63946;51.986;5.930;2023-05-10T14:29:40;17.87;64.09
75357;HTU21D;63946;51.986;5.930;2023-05-10T14:32:09;17.85;64.33
75357;HTU21D;63946;51.986;5.930;2023-05-10T14:34:41;17.88;64.23
75357;HTU21D;63946;51.986;5.930;2023-05-10T14:37:12;17.88;64.40
75357;HTU21D;63946;51.986;5.930;2023-05-10T14:39:43;17.90;64.71
75357;HTU21D;63946;51.986;5.930;2023-05-10T14:42:12;17.87;64.81
75357;HTU21D;63946;51.986;5.930;2023-05-10T14:44:41;17.79;65.02
75357;HTU21D;63946;51.986;5.930;2023-05-10T14:47:12;17.77;65.17
75357;HTU21D;63946;51.986;5.930;2023-05-10T14:49:44;17.69;65.30
75357;HTU21D;63946;51.986;5.930;2023-05-10T14:52:12;17.59;65.46
75357;HTU21D;63946;51.986;5.930;2023-05-10T14:54:41;17.56;65.50
75357;HTU21D;63946;51.986;5.930;2023-05-10T14:57:13;17.55;65.34
75357;HTU21D;63946;51.986;5.930;2023-05-10T14:59:45;17.53;65.47
75357;HTU21D;63946;51.986;5.930;2023-05-10T15:02:13;17.58;65.36
75357;HTU21D;63946;51.986;5.930;2023-05-10T15:04:42;17.60;65.03
75357;HTU21D;63946;51.986;5.930;2023-05-10T15:07:11;17.58;65.17
75357;HTU21D;63946;51.986;5.930;2023-05-10T15:09:41;17.58;65.33
75357;HTU21D;63946;51.986;5.930;2023-05-10T15:12:13;17.62;65.12
75357;HTU21D;63946;51.986;5.930;2023-05-10T15:14:42;17.54;65.25
75357;HTU21D;63946;51.986;5.930;2023-05-10T15:17:10;17.63;65.37
75357;HTU21D;63946;51.986;5.930;2023-05-10T15:19:39;17.72;65.06
75357;HTU21D;63946;51.986;5.930;2023-05-10T15:22:08;17.70;65.07
75357;HTU21D;63946;51.986;5.930;2023-05-10T15:24:37;17.72;64.94
75357;HTU21D;63946;51.986;5.930;2023-05-10T15:27:06;17.72;64.98
75357;HTU21D;63946;51.986;5.930;2023-05-10T15:29:36;17.73;64.96
75357;HTU21D;63946;51.986;5.930;2023-05-10T15:32:04;17.69;64.88
75357;HTU21D;63946;51.986;5.930;2023-05-10T15:34:33;17.68;64.76
75357;HTU21D;63946;51.986;5.930;2023-05-10T15:37:02;17.64;64.68
75357;HTU21D;63946;51.986;5.930;2023-05-10T15:39:31;17.64;64.60
75357;HTU21D;63946;51.986;5.930;2023-05-10T15:42:00;17.59;64.84
75357;HTU21D;63946;51.986;5.930;2023-05-10T15:44:34;17.60;64.94
75357;HTU21D;63946;51.986;5.930;2023-05-10T15:47:06;17.60;65.02
75357;HTU21D;63946;51.986;5.930;2023-05-10T15:49:35;17.62;64.91
75357;HTU21D;63946;51.986;5.930;2023-05-10T15:52:04;17.62;64.82
75357;HTU21D;63946;51.986;5.930;2023-05-10T15:54:34;17.63;64.76
75357;HTU21D;63946;51.986;5.930;2023-05-10T15:57:03;17.61;64.73
75357;HTU21D;63946;51.986;5.930;2023-05-10T15:59:32;17.60;64.58
75357;HTU21D;63946;51.986;5.930;2023-05-10T16:02:02;17.60;64.58
75357;HTU21D;63946;51.986;5.930;2023-05-10T16:04:33;17.62;64.50
75357;HTU21D;63946;51.986;5.930;2023-05-10T16:07:02;17.63;64.47
75357;HTU21D;63946;51.986;5.930;2023-05-10T16:09:32;17.66;64.50
75357;HTU21D;63946;51.986;5.930;2023-05-10T16:12:01;17.69;64.39
75357;HTU21D;63946;51.986;5.930;2023-05-10T16:14:30;17.74;64.25
75357;HTU21D;63946;51.986;5.930;2023-05-10T16:17:01;17.78;64.13
75357;HTU21D;63946;51.986;5.930;2023-05-10T16:19:30;17.80;63.93
75357;HTU21D;63946;51.986;5.930;2023-05-10T16:21:59;17.79;63.72
75357;HTU21D;63946;51.986;5.930;2023-05-10T16:24:28;17.79;63.50
75357;HTU21D;63946;51.986;5.930;2023-05-10T16:26:57;17.81;63.46
75357;HTU21D;63946;51.986;5.930;2023-05-10T16:29:26;17.84;63.31
75357;HTU21D;63946;51.986;5.930;2023-05-10T16:31:56;17.84;63.25
75357;HTU21D;63946;51.986;5.930;2023-05-10T16:34:24;17.83;63.08
75357;HTU21D;63946;51.986;5.930;2023-05-10T16:36:53;17.81;63.31
75357;HTU21D;63946;51.986;5.930;2023-05-10T16:39:22;17.79;63.28
75357;HTU21D;63946;51.986;5.930;2023-05-10T16:41:51;17.74;63.36
75357;HTU21D;63946;51.986;5.930;2023-05-10T16:44:20;17.69;63.56
75357;HTU21D;63946;51.986;5.930;2023-05-10T16:46:49;17.66;63.73
75357;HTU21D;63946;51.986;5.930;2023-05-10T16:49:21;17.66;63.93
75357;HTU21D;63946;51.986;5.930;2023-05-10T16:51:57;17.66;64.08
75357;HTU21D;63946;51.986;5.930;2023-05-10T16:54:27;17.64;64.14
75357;HTU21D;63946;51.986;5.930;2023-05-10T16:56:56;17.61;64.18
75357;HTU21D;63946;51.986;5.930;2023-05-10T16:59:25;17.52;64.01
75357;HTU21D;63946;51.986;5.930;2023-05-10T17:02:00;17.34;64.14
75357;HTU21D;63946;51.986;5.930;2023-05-10T17:04:31;17.25;64.27
75357;HTU21D;63946;51.986;5.930;2023-05-10T17:07:03;17.21;64.38
75357;HTU21D;63946;51.986;5.930;2023-05-10T17:09:34;17.19;64.66
75357;HTU21D;63946;51.986;5.930;2023-05-10T17:12:08;17.19;64.69
75357;HTU21D;63946;51.986;5.930;2023-05-10T17:14:36;17.15;64.87
75357;HTU21D;63946;51.986;5.930;2023-05-10T17:17:05;17.14;64.91
75357;HTU21D;63946;51.986;5.930;2023-05-10T17:19:34;17.13;64.96
75357;HTU21D;63946;51.986;5.930;2023-05-10T17:22:03;17.10;64.97
75357;HTU21D;63946;51.986;5.930;2023-05-10T17:24:32;17.09;64.98
75357;HTU21D;63946;51.986;5.930;2023-05-10T17:27:01;17.07;64.85
75357;HTU21D;63946;51.986;5.930;2023-05-10T17:29:30;17.02;64.79
75357;HTU21D;63946;51.986;5.930;2023-05-10T17:31:59;16.95;65.04
75357;HTU21D;63946;51.986;5.930;2023-05-10T17:34:28;16.91;65.27
75357;HTU21D;63946;51.986;5.930;2023-05-10T17:36:56;16.89;65.42
75357;HTU21D;63946;51.986;5.930;2023-05-10T17:39:28;16.90;65.43
75357;HTU21D;63946;51.986;5.930;2023-05-10T17:41:59;16.88;65.67
75357;HTU21D;63946;51.986;5.930;2023-05-10T17:44:30;16.85;65.52
75357;HTU21D;63946;51.986;5.930;2023-05-10T17:47:02;16.79;65.70
75357;HTU21D;63946;51.986;5.930;2023-05-10T17:49:31;16.77;65.88
75357;HTU21D;63946;51.986;5.930;2023-05-10T17:52:00;16.78;66.03
75357;HTU21D;63946;51.986;5.930;2023-05-10T17:54:31;16.80;65.95
75357;HTU21D;63946;51.986;5.930;2023-05-10T17:57:00;16.80;65.99
75357;HTU21D;63946;51.986;5.930;2023-05-10T17:59:29;16.80;66.07
75357;HTU21D;63946;51.986;5.930;2023-05-10T18:01:58;16.74;66.04
75357;HTU21D;63946;51.986;5.930;2023-05-10T18:04:27;16.66;66.12
75357;HTU21D;63946;51.986;5.930;2023-05-10T18:06:57;16.64;66.28
75357;HTU21D;63946;51.986;5.930;2023-05-10T18:09:29;16.61;66.37
75357;HTU21D;63946;51.986;5.930;2023-05-10T18:12:01;16.62;66.55
75357;HTU21D;63946;51.986;5.930;2023-05-10T18:14:30;16.62;66.75
75357;HTU21D;63946;51.986;5.930;2023-05-10T18:17:01;16.64;66.94
75357;HTU21D;63946;51.986;5.930;2023-05-10T18:19:32;16.63;66.91
75357;HTU21D;63946;51.986;5.930;2023-05-10T18:22:01;16.63;67.00
75357;HTU21D;63946;51.986;5.930;2023-05-10T18:24:33;16.61;67.10
75357;HTU21D;63946;51.986;5.930;2023-05-10T18:27:01;16.61;67.15
75357;HTU21D;63946;51.986;5.930;2023-05-10T18:29:31;16.57;67.22
75357;HTU21D;63946;51.986;5.930;2023-05-10T18:32:00;16.56;67.23
75357;HTU21D;63946;51.986;5.930;2023-05-10T18:34:29;16.56;67.22
75357;HTU21D;63946;51.986;5.930;2023-05-10T18:36:58;16.54;67.34
75357;HTU21D;63946;51.986;5.930;2023-05-10T18:39:37;16.52;67.35
75357;HTU21D;63946;51.986;5.930;2023-05-10T18:42:07;16.50;67.41
75357;HTU21D;63946;51.986;5.930;2023-05-10T18:44:36;16.48;67.52
75357;HTU21D;63946;51.986;5.930;2023-05-10T18:47:07;16.45;67.64
75357;HTU21D;63946;51.986;5.930;2023-05-10T18:49:36;16.44;67.70
75357;HTU21D;63946;51.986;5.930;2023-05-10T18:52:05;16.36;67.80
75357;HTU21D;63946;51.986;5.930;2023-05-10T18:54:34;16.32;67.98
75357;HTU21D;63946;51.986;5.930;2023-05-10T18:57:03;16.32;68.05
75357;HTU21D;63946;51.986;5.930;2023-05-10T18:59:32;16.31;68.05
75357;HTU21D;63946;51.986;5.930;2023-05-10T19:02:01;16.27;68.04
75357;HTU21D;63946;51.986;5.930;2023-05-10T19:04:30;16.24;68.18
75357;HTU21D;63946;51.986;5.930;2023-05-10T19:07:00;16.22;68.36
75357;HTU21D;63946;51.986;5.930;2023-05-10T19:09:31;16.19;68.37
75357;HTU21D;63946;51.986;5.930;2023-05-10T19:12:02;16.18;68.46
75357;HTU21D;63946;51.986;5.930;2023-05-10T19:14:31;16.14;68.59
75357;HTU21D;63946;51.986;5.930;2023-05-10T19:17:04;16.12;68.65
75357;HTU21D;63946;51.986;5.930;2023-05-10T19:19:33;16.13;68.61
75357;HTU21D;63946;51.986;5.930;2023-05-10T19:22:01;16.11;68.70
75357;HTU21D;63946;51.986;5.930;2023-05-10T19:24:32;16.07;68.91
75357;HTU21D;63946;51.986;5.930;2023-05-10T19:27:01;16.03;69.07
75357;HTU21D;63946;51.986;5.930;2023-05-10T19:29:30;16.01;69.14
75357;HTU21D;63946;51.986;5.930;2023-05-10T19:32:01;15.99;69.32
75357;HTU21D;63946;51.986;5.930;2023-05-10T19:34:30;15.95;69.49
75357;HTU21D;63946;51.986;5.930;2023-05-10T19:36:59;15.93;69.48
75357;HTU21D;63946;51.986;5.930;2023-05-10T19:39:28;15.89;69.66
75357;HTU21D;63946;51.986;5.930;2023-05-10T19:41:57;15.85;69.78
75357;HTU21D;63946;51.986;5.930;2023-05-10T19:44:27;15.81;69.89
75357;HTU21D;63946;51.986;5.930;2023-05-10T19:46:55;15.75;70.02
75357;HTU21D;63946;51.986;5.930;2023-05-10T19:49:25;15.69;70.18
75357;HTU21D;63946;51.986;5.930;2023-05-10T19:51:54;15.63;70.35
75357;HTU21D;63946;51.986;5.930;2023-05-10T19:54:23;15.60;70.44
75357;HTU21D;63946;51.986;5.930;2023-05-10T19:56:52;15.54;70.53
75357;HTU21D;63946;51.986;5.930;2023-05-10T19:59:20;15.51;70.53
75357;HTU21D;63946;51.986;5.930;2023-05-10T20:01:52;15.46;70.59
75357;HTU21D;63946;51.986;5.930;2023-05-10T20:04:21;15.40;70.70
75357;HTU21D;63946;51.986;5.930;2023-05-10T20:06:50;15.36;70.77
75357;HTU21D;63946;51.986;5.930;2023-05-10T20:09:19;15.32;70.83
75357;HTU21D;63946;51.986;5.930;2023-05-10T20:11:47;15.30;70.92
75357;HTU21D;63946;51.986;5.930;2023-05-10T20:14:17;15.26;71.06
75357;HTU21D;63946;51.986;5.930;2023-05-10T20:16:46;15.24;71.15
75357;HTU21D;63946;51.986;5.930;2023-05-10T20:19:14;15.22;71.23
75357;HTU21D;63946;51.986;5.930;2023-05-10T20:21:45;15.21;71.32
75357;HTU21D;63946;51.986;5.930;2023-05-10T20:24:14;15.17;71.38
75357;HTU21D;63946;51.986;5.930;2023-05-10T20:26:44;15.14;71.46
75357;HTU21D;63946;51.986;5.930;2023-05-10T20:29:13;15.11;71.55
75357;HTU21D;63946;51.986;5.930;2023-05-10T20:31:42;15.09;71.64
75357;HTU21D;63946;51.986;5.930;2023-05-10T20:34:10;15.06;71.70